CST,Max TemperatureF,Mean TemperatureF,Min TemperatureF,Max Dew PointF,MeanDew PointF,Min DewpointF,Max Humidity, Mean Humidity, Min Humidity, Max Sea Level PressureIn, Mean Sea Level PressureIn, Min Sea Level PressureIn, Max VisibilityMiles, Mean VisibilityMiles, Min VisibilityMiles, Max Wind SpeedMPH, Mean Wind SpeedMPH, Max Gust SpeedMPH,PrecipitationIn, CloudCover, Events, WindDirDegrees
2012-9-1,80,74,68,70,64,59,94,73,51,30.02,29.99,29.96,6,6,4,16,11,,0.00,5,Fog-Rain-Thunderstorm,44
2012-9-2,78,73,68,66,64,61,88,75,57,30.04,30.00,29.96,6,6,6,17,10,,0.00,5,Rain-Thunderstorm,106
2012-9-3,78,74,69,64,63,61,83,69,57,30.07,30.03,29.98,6,6,5,15,9,,0.00,6,Rain,90
2012-9-4,80,74,68,70,65,61,100,77,51,30.06,30.01,29.98,6,4,1,14,9,,0.00,6,Rain-Thunderstorm,283
2012-9-5,78,72,66,70,66,61,100,79,61,30.04,29.99,29.94,6,4,1,12,6,,0.00,5,Rain-Thunderstorm,261
2012-9-6,80,74,68,72,67,63,100,78,58,30.04,29.99,29.93,6,5,1,14,8,,0.00,5,Rain-Thunderstorm,138
2012-9-7,80,74,69,68,64,61,88,67,57,30.02,29.97,29.91,6,6,4,15,11,,0.00,5,Fog,71
2012-9-8,82,76,69,68,66,63,94,76,51,30.01,29.96,29.92,6,6,3,12,5,,0.00,5,Fog-Rain-Thunderstorm,255
2012-9-9,75,70,64,70,66,64,100,85,69,30.08,30.02,29.97,6,6,3,9,5,,0.00,6,Rain,261
2012-9-10,80,73,66,64,63,61,83,65,54,30.06,30.00,29.96,6,6,6,16,13,,0.00,5,Rain-Thunderstorm,81
2012-9-11,78,73,68,63,61,59,78,68,57,30.04,30.00,29.94,6,6,3,18,12,,0.00,6,Rain,93
2012-9-12,80,74,68,61,58,55,73,55,44,29.99,29.95,29.89,6,6,6,16,14,28,0.00,6,,74
2012-9-13,80,74,69,70,64,59,94,71,54,29.99,29.94,29.92,6,5,2,15,11,,0.00,6,Rain-Thunderstorm,97
2012-9-14,80,74,68,66,63,61,83,66,54,29.99,29.96,29.92,6,6,6,14,9,,0.00,5,Rain-Thunderstorm,83
2012-9-15,84,76,68,68,65,61,100,71,48,30.04,29.98,29.92,6,5,2,15,10,,0.00,6,Rain-Thunderstorm,62
2012-9-16,84,76,68,66,64,63,83,67,48,30.05,29.98,29.93,6,6,6,17,12,,0.00,6,Rain-Thunderstorm,94
2012-9-17,80,71,62,66,65,63,100,73,61,30.07,30.03,29.98,6,5,4,10,4,,0.00,6,Thunderstorm,295
2012-9-18,82,74,66,68,64,59,94,69,48,30.07,30.01,29.97,6,5,2,13,9,,0.00,6,Rain-Thunderstorm,110
2012-9-19,80,73,66,70,64,59,100,72,48,30.06,29.99,29.94,6,6,3,14,10,,0.00,4,Fog-Rain-Thunderstorm,277
2012-9-20,84,76,68,72,66,61,88,70,45,29.99,29.93,29.88,6,6,6,13,9,,0.00,2,Rain-Thunderstorm,258
2012-9-21,82,74,66,68,63,59,88,67,51,29.95,29.90,29.85,6,5,3,16,9,26,0.00,5,Rain-Thunderstorm,108
2012-9-22,77,72,66,70,65,59,100,78,57,29.99,29.95,29.92,6,6,2,12,9,,0.00,5,Fog-Rain-Thunderstorm,292
2012-9-23,80,74,68,68,65,63,100,75,54,30.02,29.99,29.95,6,6,3,14,8,,0.00,5,Rain-Thunderstorm,113
2012-9-24,80,74,68,64,63,61,88,68,54,30.02,29.96,29.91,6,6,6,16,11,,0.00,6,Rain,77
2012-9-25,80,74,68,70,63,57,88,68,51,30.02,29.96,29.90,6,6,5,14,11,,0.00,5,Fog-Rain-Thunderstorm,87
2012-9-26,84,76,68,70,67,59,94,79,54,30.02,29.95,29.91,6,4,0,16,9,,0.00,5,Rain-Thunderstorm,279
2012-9-27,80,73,66,68,64,61,100,78,61,30.02,29.98,29.94,6,5,2,12,8,18,0.00,6,Rain-Thunderstorm,172
2012-9-28,80,71,62,70,65,61,100,78,57,30.01,29.96,29.91,6,5,2,16,8,,0.00,5,Fog-Rain-Thunderstorm,253
2012-9-29,78,70,62,68,65,61,100,79,57,30.01,29.95,29.90,6,5,2,14,5,,0.00,5,Rain-Thunderstorm,271
2012-9-30,77,72,68,72,67,63,100,83,69,29.99,29.93,29.88,6,5,2,13,8,,0.00,5,Rain,280